NWK1672 YPPH-YMHB
Flight info
| Callsign | NWK1672 |
|---|---|
| Flight time | N/A |
| Altitude | 37000 |
| Route | MEMUP Y87 TAPAX T134 VIBUX DCT OTGAB DCT 40S140E DCT URBEN Y557 MORGO |
| Aircraft | A319/M-SDE3FGHIRWY/LB1 |
Departure
| Time | N/A |
|---|---|
| Airport | Perth International Airport (YPPH) |
Arrival
| Time | 2026-04-26 04:11 |
|---|---|
| Airport | Hobart International Airport (YMHB) |
| Time | Latitude | Longitude | Altitude | Speed | Heading |
|---|---|---|---|---|---|
| 2026-04-26 03:51 | -41.86980 | 146.26694 | 32829 ft | 493 kts | 108° |
| 2026-04-26 03:51 | -41.88299 | 146.30979 | 31881 ft | 496 kts | 115° |
| 2026-04-26 03:51 | -41.89862 | 146.35116 | 30890 ft | 499 kts | 116° |
| 2026-04-26 03:51 | -41.91451 | 146.39291 | 29673 ft | 506 kts | 116° |
| 2026-04-26 03:52 | -41.93064 | 146.43523 | 28405 ft | 510 kts | 116° |
| 2026-04-26 03:52 | -41.94682 | 146.47773 | 27440 ft | 509 kts | 116° |
| 2026-04-26 03:52 | -41.96272 | 146.51961 | 26855 ft | 499 kts | 116° |
| 2026-04-26 03:52 | -41.97840 | 146.56109 | 26093 ft | 495 kts | 115° |
| 2026-04-26 03:53 | -41.99387 | 146.60218 | 25372 ft | 490 kts | 115° |
| 2026-04-26 03:53 | -42.00918 | 146.64289 | 24646 ft | 487 kts | 115° |
| 2026-04-26 03:53 | -42.02442 | 146.68342 | 23935 ft | 484 kts | 115° |
| 2026-04-26 03:53 | -42.03955 | 146.72371 | 23333 ft | 481 kts | 115° |
| 2026-04-26 03:54 | -42.05466 | 146.76399 | 23087 ft | 481 kts | 115° |
| 2026-04-26 03:54 | -42.06971 | 146.80422 | 22905 ft | 481 kts | 115° |
| 2026-04-26 03:54 | -42.08472 | 146.84442 | 21724 ft | 486 kts | 115° |
| 2026-04-26 03:54 | -42.09988 | 146.88513 | 20715 ft | 486 kts | 115° |
| 2026-04-26 03:55 | -42.11501 | 146.92567 | 19875 ft | 481 kts | 115° |
| 2026-04-26 03:55 | -42.12997 | 146.96579 | 19084 ft | 476 kts | 114° |
| 2026-04-26 03:55 | -42.14466 | 147.00524 | 18489 ft | 467 kts | 114° |
| 2026-04-26 03:55 | -42.15929 | 147.04408 | 17829 ft | 460 kts | 117° |
| 2026-04-26 03:56 | -42.17685 | 147.07978 | 17230 ft | 455 kts | 128° |
| 2026-04-26 03:56 | -42.19827 | 147.11070 | 16606 ft | 448 kts | 137° |
| 2026-04-26 03:56 | -42.22115 | 147.13889 | 15985 ft | 443 kts | 138° |
| 2026-04-26 03:56 | -42.24375 | 147.16679 | 15331 ft | 437 kts | 138° |
| 2026-04-26 03:57 | -42.26596 | 147.19430 | 14691 ft | 431 kts | 138° |
| 2026-04-26 03:57 | -42.28792 | 147.22164 | 14031 ft | 426 kts | 138° |
| 2026-04-26 03:57 | -42.30972 | 147.24841 | 13346 ft | 420 kts | 142° |
| 2026-04-26 03:57 | -42.33323 | 147.27058 | 12867 ft | 408 kts | 152° |
| 2026-04-26 03:58 | -42.35787 | 147.28913 | 12329 ft | 402 kts | 154° |
| 2026-04-26 03:58 | -42.38221 | 147.30729 | 11908 ft | 398 kts | 154° |
| 2026-04-26 03:58 | -42.40638 | 147.32532 | 11480 ft | 394 kts | 154° |
| 2026-04-26 03:58 | -42.43025 | 147.34315 | 11055 ft | 391 kts | 154° |
| 2026-04-26 03:59 | -42.45358 | 147.36064 | 10790 ft | 370 kts | 154° |
| 2026-04-26 03:59 | -42.47556 | 147.37718 | 10272 ft | 356 kts | 154° |
| 2026-04-26 03:59 | -42.49688 | 147.39318 | 10043 ft | 354 kts | 154° |
| 2026-04-26 03:59 | -42.51803 | 147.40906 | 9829 ft | 342 kts | 154° |
| 2026-04-26 04:00 | -42.53837 | 147.42441 | 9692 ft | 328 kts | 154° |
| 2026-04-26 04:00 | -42.55808 | 147.43930 | 9460 ft | 320 kts | 155° |
| 2026-04-26 04:00 | -42.57742 | 147.45387 | 9208 ft | 315 kts | 155° |
| 2026-04-26 04:00 | -42.59596 | 147.46969 | 8941 ft | 316 kts | 145° |
| 2026-04-26 04:01 | -42.61287 | 147.48867 | 8660 ft | 314 kts | 143° |
| 2026-04-26 04:01 | -42.62958 | 147.50766 | 8365 ft | 312 kts | 143° |
| 2026-04-26 04:01 | -42.64619 | 147.52656 | 8081 ft | 311 kts | 143° |
| 2026-04-26 04:01 | -42.66271 | 147.54536 | 7809 ft | 309 kts | 143° |
| 2026-04-26 04:02 | -42.67915 | 147.56410 | 7521 ft | 306 kts | 143° |
| 2026-04-26 04:02 | -42.69538 | 147.58260 | 7244 ft | 304 kts | 143° |
| 2026-04-26 04:02 | -42.71160 | 147.60106 | 6970 ft | 303 kts | 143° |
| 2026-04-26 04:02 | -42.72749 | 147.61916 | 6697 ft | 301 kts | 143° |
| 2026-04-26 04:03 | -42.74380 | 147.63778 | 6422 ft | 303 kts | 144° |
| 2026-04-26 04:03 | -42.75967 | 147.65592 | 6139 ft | 301 kts | 143° |
| 2026-04-26 04:03 | -42.77568 | 147.67424 | 5909 ft | 300 kts | 143° |
| 2026-04-26 04:03 | -42.79139 | 147.69221 | 5708 ft | 286 kts | 143° |
| 2026-04-26 04:04 | -42.80630 | 147.70932 | 5418 ft | 277 kts | 143° |
| 2026-04-26 04:04 | -42.82094 | 147.72610 | 5291 ft | 275 kts | 143° |
| 2026-04-26 04:04 | -42.83559 | 147.74287 | 4888 ft | 273 kts | 143° |
| 2026-04-26 04:04 | -42.85144 | 147.75619 | 4428 ft | 263 kts | 164° |
| 2026-04-26 04:05 | -42.86850 | 147.76026 | 4294 ft | 236 kts | 186° |
| 2026-04-26 04:05 | -42.88367 | 147.75698 | 4235 ft | 207 kts | 205° |
| 2026-04-26 04:05 | -42.89614 | 147.74931 | 4168 ft | 192 kts | 213° |
| 2026-04-26 04:05 | -42.90798 | 147.74133 | 4078 ft | 188 kts | 213° |
| 2026-04-26 04:06 | -42.91915 | 147.73250 | 3988 ft | 179 kts | 228° |
| 2026-04-26 04:06 | -42.92598 | 147.71985 | 3901 ft | 158 kts | 252° |
| 2026-04-26 04:06 | -42.92822 | 147.70559 | 3629 ft | 153 kts | 273° |
| 2026-04-26 04:06 | -42.92815 | 147.69120 | 3386 ft | 151 kts | 273° |
| 2026-04-26 04:07 | -42.92815 | 147.67700 | 3143 ft | 147 kts | 272° |
| 2026-04-26 04:07 | -42.92815 | 147.66324 | 2915 ft | 143 kts | 272° |
| 2026-04-26 04:07 | -42.92816 | 147.64989 | 2698 ft | 139 kts | 273° |
| 2026-04-26 04:07 | -42.92644 | 147.63727 | 2480 ft | 134 kts | 294° |
| 2026-04-26 04:08 | -42.92109 | 147.62716 | 2288 ft | 131 kts | 313° |
| 2026-04-26 04:08 | -42.91476 | 147.61860 | 2089 ft | 127 kts | 311° |
| 2026-04-26 04:08 | -42.90853 | 147.61012 | 1903 ft | 125 kts | 312° |
| 2026-04-26 04:08 | -42.90239 | 147.60178 | 1729 ft | 126 kts | 311° |
| 2026-04-26 04:09 | -42.89617 | 147.59333 | 1583 ft | 126 kts | 313° |
| 2026-04-26 04:09 | -42.89013 | 147.58512 | 1397 ft | 120 kts | 313° |
| 2026-04-26 04:09 | -42.88435 | 147.57722 | 1231 ft | 121 kts | 310° |
| 2026-04-26 04:09 | -42.87839 | 147.56915 | 1048 ft | 118 kts | 314° |
| 2026-04-26 04:10 | -42.87251 | 147.56119 | 873 ft | 120 kts | 314° |
| 2026-04-26 04:10 | -42.86666 | 147.55325 | 682 ft | 118 kts | 316° |
| 2026-04-26 04:10 | -42.86086 | 147.54534 | 473 ft | 119 kts | 318° |
| 2026-04-26 04:10 | -42.85505 | 147.53734 | 333 ft | 120 kts | 318° |
| 2026-04-26 04:11 | -42.84908 | 147.52927 | 168 ft | 119 kts | 316° |
| 2026-04-26 04:11 | -42.84329 | 147.52139 | 32 ft | 111 kts | 319° |
| 2026-04-26 04:11 | -42.83862 | 147.51513 | 22 ft | 73 kts | 315° |
| 2026-04-26 04:11 | -42.83606 | 147.51170 | 23 ft | 44 kts | 315° |
| 2026-04-26 04:12 | -42.83394 | 147.50885 | 22 ft | 29 kts | 314° |
| 2026-04-26 04:12 | -42.83314 | 147.50701 | 22 ft | 23 kts | 269° |
| 2026-04-26 04:12 | -42.83400 | 147.50550 | 22 ft | 15 kts | 191° |
| 2026-04-26 04:12 | -42.83484 | 147.50627 | 23 ft | 14 kts | 133° |
| 2026-04-26 04:13 | -42.83552 | 147.50710 | 24 ft | 13 kts | 155° |
| 2026-04-26 04:13 | -42.83609 | 147.50656 | 23 ft | 9 kts | 197° |
| 2026-04-26 04:13 | -42.83665 | 147.50706 | 24 ft | 11 kts | 133° |
| 2026-04-26 04:13 | -42.83714 | 147.50749 | 22 ft | 7 kts | 198° |
| 2026-04-26 04:14 | -42.83735 | 147.50720 | 23 ft | 2 kts | 236° |
| 2026-04-26 04:14 | -42.83744 | 147.50701 | 22 ft | 1 kts | 236° |
| 2026-04-26 04:14 | -42.83746 | 147.50697 | 22 ft | 0 kts | 236° |